Terminal Aerodrome Forecast
Issued by NWS

Home | Current Version | Previous Version | Text Only | Print | Product List | Glossary On
Versions: 1 2 3 4 5 6 7 8 9 10 11 12 13 14 15 16 17 18 19 20 21 22 23 24 25 26 27 28 29 30 31 32
629
FTUS46 KLOX 230904 AAB
TAFLAX
TAF AMD
KLAX 230904Z 2309/2412 VRB03KT 5SM BR FEW002 BKN008
     FM231030 VRB03KT 2SM BR OVC004
     FM231500 VRB03KT 3SM BR BKN007
     FM231700 23006KT 4SM HZ BKN010
     FM232000 25010KT P6SM SCT012
     FM240300 VRB03KT 4SM BR BKN007=

USA.gov is the U.S. government's official web portal to all federal, state and local government web resources and services.